General Aviation Weather

Text Reports

Enter one or more of the following location identifiers separated by a space:

Zip Code, Four-Character ICAO or Three-Character IATA airport codes.

METAR - Aviation Routine Weather Report
KSGJ - St. Augustine, Florida
Updated at 2:58 AM GMT on August 21, 2014 (10:58 PM EDT):
METAR KSGJ 210258Z AUTO 00000KT 10SM CLR 25/22 A3009 RMK AO2 SLP190 60009 T02500222 51018 $
TAF - Terminal Area Forecast
KSGJ - St. Augustine, Florida
Updated at 2:58 AM GMT on August 21, 2014 (10:58 PM EDT):
No TAF is currently available for this location.
Decoded:
No decoded TAF is available.
PIREP - Pilot Weather Report
KSGJ - St. Augustine, Florida
Updated at 2:58 AM GMT on August 21, 2014 (10:58 PM EDT):
No PIREP is currently available for this location.
AIRMET - Airmens Meteorological Information
KSGJ - St. Augustine, Florida
Updated at 2:58 AM GMT on August 21, 2014 (10:58 PM EDT):
No AIRMET is currently available for this location.
SIGMET - Significant Meteorological Information
KSGJ - St. Augustine, Florida
Updated at 2:58 AM GMT on August 21, 2014 (10:58 PM EDT):
No SIGMET is currently available for this location.
NOTAM - Notice to Airmen
KSGJ - St. Augustine, Florida
Updated at 2:58 AM GMT on August 21, 2014 (10:58 PM EDT):
No NOTAM is currently available for this location.
Forecast Area
KSGJ - St. Augustine, Florida
Updated at 2:58 AM GMT on August 21, 2014 (10:58 PM EDT):
No NOTAM is currently available for this location.
Aviation Weather Maps